createdAt,value
2023-01-30T00:00:50.645Z,4.10
2023-01-30T00:02:52.218Z,4.09
2023-01-30T00:04:53.757Z,4.09
2023-01-30T00:06:55.438Z,4.05
2023-01-30T00:08:57.112Z,4.07
2023-01-30T00:11:04.462Z,4.07
2023-01-30T00:13:06.004Z,4.07
2023-01-30T00:15:09.220Z,4.07
2023-01-30T00:17:10.875Z,4.07
2023-01-30T00:19:12.691Z,4.06
2023-01-30T00:21:15.576Z,4.06
2023-01-30T00:23:17.294Z,4.03
2023-01-30T00:25:19.098Z,4.03
2023-01-30T00:27:22.234Z,4.04
2023-01-30T00:29:23.862Z,4.01
2023-01-30T00:31:25.525Z,4.04
2023-01-30T00:33:27.841Z,4.02
2023-01-30T00:35:29.944Z,4.03
2023-01-30T00:37:31.697Z,4.02
2023-01-30T00:39:33.272Z,4.03
2023-01-30T00:41:35.815Z,4.00
2023-01-30T00:43:38.905Z,4.02
2023-01-30T00:45:42.823Z,4.03
2023-01-30T00:47:44.518Z,4.01
2023-01-30T00:49:46.271Z,4.03
2023-01-30T00:51:47.858Z,4.04
2023-01-30T00:53:49.402Z,4.02
2023-01-30T00:55:51.757Z,4.02
2023-01-30T00:57:53.344Z,4.03
2023-01-30T00:59:56.297Z,4.05
2023-01-30T01:01:58.264Z,4.06
2023-01-30T01:03:59.993Z,4.08
2023-01-30T01:06:01.874Z,4.08
2023-01-30T01:08:04.133Z,4.09
2023-01-30T01:10:06.958Z,4.08
2023-01-30T01:12:09.281Z,4.10
2023-01-30T01:14:10.826Z,4.11
2023-01-30T01:16:13.908Z,4.13
2023-01-30T01:18:15.591Z,4.13
2023-01-30T01:20:18.534Z,4.14
2023-01-30T01:22:20.371Z,4.14
2023-01-30T01:24:22.086Z,4.16
2023-01-30T01:26:23.800Z,4.16
2023-01-30T01:28:25.584Z,4.15
2023-01-30T01:30:27.354Z,4.18
2023-01-30T01:32:30.368Z,4.18
2023-01-30T01:34:31.898Z,4.15
2023-01-30T01:36:52.786Z,4.16
2023-01-30T01:38:55.129Z,4.19
2023-01-30T01:40:56.861Z,4.21
2023-01-30T01:42:58.653Z,4.21
2023-01-30T01:45:05.190Z,4.22
2023-01-30T01:47:11.227Z,4.20
2023-01-30T01:49:20.995Z,4.24
2023-01-30T01:51:30.037Z,4.23
2023-01-30T01:53:36.276Z,4.24
2023-01-30T01:55:40.524Z,4.25
2023-01-30T01:57:47.083Z,4.26
2023-01-30T01:59:53.003Z,4.28
2023-01-30T02:01:58.589Z,4.26
2023-01-30T02:04:04.419Z,4.26
2023-01-30T02:06:09.144Z,4.29
2023-01-30T02:08:13.870Z,4.31
2023-01-30T02:10:19.826Z,4.31
2023-01-30T02:12:21.939Z,4.34
2023-01-30T02:14:24.603Z,4.32
2023-01-30T02:16:26.761Z,4.34
2023-01-30T02:18:30.973Z,4.36
2023-01-30T02:20:57.418Z,4.37
2023-01-30T02:23:31.898Z,4.40
2023-01-30T02:26:02.325Z,4.39
2023-01-30T02:28:30.269Z,4.41
2023-01-30T02:31:17.037Z,4.43
2023-01-30T02:33:28.610Z,4.42
2023-01-30T02:35:37.203Z,4.43
2023-01-30T02:37:51.119Z,4.44
2023-01-30T02:40:15.972Z,4.45
2023-01-30T02:42:27.391Z,4.45
2023-01-30T02:44:38.738Z,4.45
2023-01-30T02:46:51.016Z,4.46
2023-01-30T02:48:57.759Z,4.47
2023-01-30T02:51:05.622Z,4.48
2023-01-30T02:53:09.625Z,4.49
2023-01-30T02:55:19.210Z,4.49
2023-01-30T02:57:23.297Z,4.50
2023-01-30T02:59:30.625Z,4.49
2023-01-30T03:01:54.328Z,4.51
2023-01-30T03:04:11.236Z,4.52
2023-01-30T03:06:29.790Z,4.53
2023-01-30T03:08:40.062Z,4.52
2023-01-30T03:10:50.655Z,4.51
2023-01-30T03:12:59.299Z,4.51
2023-01-30T03:15:05.689Z,4.51
2023-01-30T03:17:11.257Z,4.54
2023-01-30T03:19:13.772Z,4.54
2023-01-30T03:21:16.152Z,4.54
2023-01-30T03:23:17.691Z,4.54
2023-01-30T03:25:21.851Z,4.55
2023-01-30T03:27:23.994Z,4.56
2023-01-30T03:29:25.566Z,4.57
2023-01-30T03:31:27.214Z,4.58
2023-01-30T03:33:30.267Z,4.59
2023-01-30T03:35:31.823Z,4.60
2023-01-30T03:37:33.573Z,4.61
2023-01-30T03:39:35.283Z,4.62
2023-01-30T03:41:36.835Z,4.62
2023-01-30T03:43:38.403Z,4.64
2023-01-30T03:45:40.148Z,4.66
2023-01-30T03:47:41.942Z,4.66
2023-01-30T03:49:44.919Z,4.66
2023-01-30T03:51:46.492Z,4.67
2023-01-30T03:53:48.277Z,4.71
2023-01-30T03:55:50.184Z,4.72
2023-01-30T03:57:55.597Z,4.72
2023-01-30T03:59:59.956Z,4.72
2023-01-30T04:02:01.559Z,4.74
2023-01-30T04:04:03.385Z,4.75
2023-01-30T04:06:06.684Z,4.78
2023-01-30T04:08:08.431Z,4.80
2023-01-30T04:10:11.193Z,4.83
2023-01-30T04:12:13.506Z,4.84
2023-01-30T04:14:15.178Z,4.87
2023-01-30T04:16:21.085Z,4.90
2023-01-30T04:18:22.933Z,4.91
2023-01-30T04:20:24.762Z,4.93
2023-01-30T04:22:27.900Z,4.95
2023-01-30T04:24:29.566Z,4.94
2023-01-30T04:26:31.331Z,4.94
2023-01-30T04:28:33.396Z,4.97
2023-01-30T04:30:35.033Z,4.98
2023-01-30T04:32:36.747Z,4.98
2023-01-30T04:34:38.300Z,5.00
2023-01-30T04:36:40.052Z,5.02
2023-01-30T04:38:43.183Z,5.01
2023-01-30T04:40:48.499Z,5.03
2023-01-30T04:42:50.090Z,5.05
2023-01-30T04:44:51.671Z,5.05
2023-01-30T04:46:54.222Z,5.06
2023-01-30T04:48:55.795Z,5.07
2023-01-30T04:50:57.805Z,5.05
2023-01-30T04:52:59.402Z,5.09
2023-01-30T04:55:02.379Z,5.09
2023-01-30T04:57:04.167Z,5.12
2023-01-30T04:59:06.185Z,5.12
2023-01-30T05:01:16.513Z,5.14
2023-01-30T05:03:18.773Z,5.14
2023-01-30T05:05:20.813Z,5.16
2023-01-30T05:07:22.479Z,5.16
2023-01-30T05:09:24.001Z,5.18
2023-01-30T05:11:29.342Z,5.20
2023-01-30T05:13:30.967Z,5.19
2023-01-30T05:15:33.350Z,5.21
2023-01-30T05:17:35.434Z,5.23
2023-01-30T05:19:37.000Z,5.24
2023-01-30T05:21:38.774Z,5.26
2023-01-30T05:23:40.472Z,5.28
2023-01-30T05:25:42.439Z,5.27
2023-01-30T05:27:45.570Z,5.30
2023-01-30T05:29:47.254Z,5.31
2023-01-30T05:31:48.828Z,5.34
2023-01-30T05:33:51.958Z,5.34
2023-01-30T05:35:53.527Z,5.36
2023-01-30T05:37:55.690Z,5.34
2023-01-30T05:39:57.284Z,5.37
2023-01-30T05:41:58.842Z,5.38
2023-01-30T05:44:01.995Z,5.39
2023-01-30T05:46:05.961Z,5.40
2023-01-30T05:48:07.509Z,5.40
2023-01-30T05:50:11.051Z,5.42
2023-01-30T05:52:12.705Z,5.42
2023-01-30T05:54:14.972Z,5.44
2023-01-30T05:56:17.318Z,5.42
2023-01-30T05:58:18.970Z,5.45
2023-01-30T06:00:22.565Z,5.45
2023-01-30T06:02:24.241Z,5.46
2023-01-30T06:04:25.866Z,5.48
2023-01-30T06:06:27.444Z,5.48
2023-01-30T06:08:29.563Z,5.49
2023-01-30T06:10:31.088Z,5.51
2023-01-30T06:12:32.914Z,5.50
2023-01-30T06:14:34.438Z,5.53
2023-01-30T06:16:37.597Z,5.53
2023-01-30T06:18:39.244Z,5.52
2023-01-30T06:20:40.891Z,5.53
2023-01-30T06:22:42.751Z,5.53
2023-01-30T06:24:44.327Z,5.54
2023-01-30T06:26:46.188Z,5.54
2023-01-30T06:28:47.860Z,5.53
2023-01-30T06:30:49.887Z,5.54
2023-01-30T06:32:53.045Z,5.56
2023-01-30T06:34:54.565Z,5.55
2023-01-30T06:36:56.360Z,5.56
2023-01-30T06:38:58.597Z,5.57
2023-01-30T06:41:00.181Z,5.59
2023-01-30T06:43:02.114Z,5.60
2023-01-30T06:45:04.441Z,5.60
2023-01-30T06:47:05.966Z,5.61
2023-01-30T06:49:09.188Z,5.61
2023-01-30T06:51:10.812Z,5.63
2023-01-30T06:53:12.401Z,5.64
2023-01-30T06:55:17.211Z,5.64
2023-01-30T06:57:19.172Z,5.63
2023-01-30T06:59:20.856Z,5.65
2023-01-30T07:01:22.456Z,5.66
2023-01-30T07:03:24.439Z,5.67
2023-01-30T07:05:27.862Z,5.68
2023-01-30T07:07:29.698Z,5.69
2023-01-30T07:09:31.226Z,5.70
2023-01-30T07:11:32.864Z,5.69
2023-01-30T07:13:34.655Z,5.71
2023-01-30T07:15:36.190Z,5.70
2023-01-30T07:17:40.338Z,5.71
2023-01-30T07:19:42.361Z,5.71
2023-01-30T07:21:45.407Z,5.73
2023-01-30T07:23:47.133Z,5.73
2023-01-30T07:25:48.737Z,5.74
2023-01-30T07:27:51.086Z,5.73
2023-01-30T07:29:53.413Z,5.73
2023-01-30T07:31:55.008Z,5.74
2023-01-30T07:33:57.023Z,5.74
2023-01-30T07:35:58.643Z,5.74
2023-01-30T07:38:01.760Z,5.75
2023-01-30T07:40:04.034Z,5.75
2023-01-30T07:42:06.351Z,5.76
2023-01-30T07:44:08.245Z,5.76
2023-01-30T07:46:10.059Z,5.78
2023-01-30T07:48:14.102Z,5.78
2023-01-30T07:50:16.941Z,5.78
2023-01-30T07:52:18.787Z,5.80
2023-01-30T07:54:21.904Z,5.80
2023-01-30T07:56:24.127Z,5.81
2023-01-30T07:58:25.676Z,5.81
2023-01-30T08:00:27.445Z,5.81
2023-01-30T08:02:29.015Z,5.82
2023-01-30T08:04:30.578Z,5.84
2023-01-30T08:06:32.159Z,5.87
2023-01-30T08:08:33.816Z,5.86
2023-01-30T08:10:36.840Z,5.88
2023-01-30T08:12:39.496Z,5.90
2023-01-30T08:14:41.070Z,5.91
2023-01-30T08:16:42.856Z,5.91
2023-01-30T08:18:44.867Z,5.90
2023-01-30T08:20:47.480Z,5.92
2023-01-30T08:22:49.044Z,5.92
2023-01-30T08:24:50.633Z,5.94
2023-01-30T08:26:53.588Z,5.96
2023-01-30T08:28:55.173Z,5.95
2023-01-30T08:30:57.830Z,5.96
2023-01-30T08:32:59.608Z,5.95
2023-01-30T08:35:01.131Z,5.97
2023-01-30T08:37:03.294Z,5.99
2023-01-30T08:39:05.685Z,6.01
2023-01-30T08:41:07.589Z,6.02
2023-01-30T08:43:10.929Z,6.02
2023-01-30T08:45:12.799Z,6.03
2023-01-30T08:47:14.680Z,6.08
2023-01-30T08:49:18.483Z,6.11
2023-01-30T08:51:20.234Z,6.14
2023-01-30T08:53:22.464Z,6.16
2023-01-30T08:55:24.013Z,6.24
2023-01-30T08:57:25.574Z,6.35
2023-01-30T08:59:28.551Z,6.54
2023-01-30T09:01:30.313Z,6.68
2023-01-30T09:03:32.127Z,6.79
2023-01-30T09:05:33.887Z,6.97
2023-01-30T09:07:35.869Z,7.03
2023-01-30T09:09:37.432Z,7.07
2023-01-30T09:11:38.943Z,7.05
2023-01-30T09:13:40.656Z,7.01
2023-01-30T09:15:44.291Z,6.96
2023-01-30T09:17:46.076Z,6.90
2023-01-30T09:19:48.003Z,6.82
2023-01-30T09:21:51.884Z,6.76
2023-01-30T09:23:55.979Z,6.66
2023-01-30T09:25:57.518Z,6.60
2023-01-30T09:27:59.212Z,6.52
2023-01-30T09:30:00.872Z,6.47
2023-01-30T09:32:04.093Z,6.42
2023-01-30T09:34:05.996Z,6.34
2023-01-30T09:36:08.701Z,6.32
2023-01-30T09:38:10.206Z,6.29
2023-01-30T09:40:16.081Z,6.27
2023-01-30T09:42:39.751Z,6.23
2023-01-30T09:45:02.223Z,6.16
2023-01-30T09:47:10.925Z,6.14
2023-01-30T09:49:27.878Z,6.13
2023-01-30T09:51:46.899Z,6.10
2023-01-30T09:54:12.531Z,6.06
2023-01-30T09:56:17.856Z,6.03
2023-01-30T09:58:22.308Z,6.02
2023-01-30T10:00:32.279Z,5.96
2023-01-30T10:02:50.313Z,5.96
2023-01-30T10:05:00.987Z,5.91
2023-01-30T10:07:16.486Z,5.90
2023-01-30T10:09:31.043Z,5.93
2023-01-30T10:11:51.878Z,6.02
2023-01-30T10:14:20.615Z,6.13
2023-01-30T10:16:27.376Z,6.08
2023-01-30T10:18:51.777Z,6.07
2023-01-30T10:21:11.539Z,6.05
2023-01-30T10:23:30.547Z,6.00
2023-01-30T10:25:37.715Z,6.01
2023-01-30T10:27:49.075Z,5.98
2023-01-30T10:29:54.968Z,5.93
2023-01-30T10:32:02.595Z,5.93
2023-01-30T10:34:12.437Z,5.90
2023-01-30T10:36:18.518Z,5.88
2023-01-30T10:38:27.758Z,5.86
2023-01-30T10:40:37.440Z,5.88
2023-01-30T10:42:46.940Z,5.94
2023-01-30T10:44:49.154Z,5.92
2023-01-30T10:47:47.062Z,5.98
2023-01-30T10:49:53.915Z,6.21
2023-01-30T10:52:02.888Z,6.26
2023-01-30T10:54:13.045Z,6.35
2023-01-30T10:56:20.794Z,6.42
2023-01-30T10:58:30.931Z,6.50
2023-01-30T11:00:39.375Z,6.52
2023-01-30T11:02:53.503Z,6.55
2023-01-30T11:05:03.543Z,6.55
2023-01-30T11:07:06.146Z,6.51
2023-01-30T11:09:09.049Z,6.51
2023-01-30T11:11:26.423Z,6.49
2023-01-30T11:13:31.348Z,6.49
2023-01-30T11:15:40.498Z,6.53
2023-01-30T11:17:45.313Z,6.57
2023-01-30T11:19:54.923Z,6.56
2023-01-30T11:22:05.881Z,6.55
2023-01-30T11:24:14.395Z,6.57
2023-01-30T11:26:21.472Z,6.56
2023-01-30T11:28:24.557Z,6.56
2023-01-30T11:30:29.076Z,6.55
2023-01-30T11:32:30.694Z,6.58
2023-01-30T11:34:32.793Z,6.57
2023-01-30T11:36:36.342Z,6.56
2023-01-30T11:38:57.301Z,6.59
2023-01-30T11:41:04.936Z,6.59
2023-01-30T11:43:12.387Z,6.59
2023-01-30T11:45:18.016Z,6.57
2023-01-30T11:47:24.304Z,6.57
2023-01-30T11:49:46.889Z,6.59
2023-01-30T11:51:54.220Z,6.57
2023-01-30T11:54:02.423Z,6.60
2023-01-30T11:56:10.113Z,6.61
2023-01-30T11:58:14.668Z,6.63
2023-01-30T12:00:20.812Z,6.63
2023-01-30T12:02:26.207Z,6.65
2023-01-30T12:04:28.737Z,6.67
2023-01-30T12:06:32.126Z,6.68
2023-01-30T12:08:42.369Z,6.69
2023-01-30T12:10:48.480Z,6.73
2023-01-30T12:12:52.621Z,6.73
2023-01-30T12:15:03.204Z,6.73
2023-01-30T12:17:14.048Z,6.76
2023-01-30T12:19:29.516Z,6.79
2023-01-30T12:21:39.497Z,6.79
2023-01-30T12:23:46.577Z,6.76
2023-01-30T12:25:58.540Z,6.79
2023-01-30T12:28:03.528Z,6.79
2023-01-30T12:30:20.529Z,6.79
2023-01-30T12:32:27.231Z,6.80
2023-01-30T12:34:28.888Z,6.79
2023-01-30T12:36:42.957Z,6.82
2023-01-30T12:38:56.370Z,6.80
2023-01-30T12:41:12.474Z,6.82
2023-01-30T12:43:29.908Z,6.83
2023-01-30T12:45:34.794Z,6.82
2023-01-30T12:47:55.250Z,6.80
2023-01-30T12:50:15.761Z,6.79
2023-01-30T12:52:38.942Z,6.78
2023-01-30T12:54:52.104Z,6.79
2023-01-30T12:57:09.187Z,6.77
2023-01-30T12:59:18.808Z,6.74
2023-01-30T13:01:27.671Z,6.73
2023-01-30T13:03:41.537Z,6.73
2023-01-30T13:05:51.354Z,6.70
2023-01-30T13:08:13.005Z,6.70
2023-01-30T13:10:24.664Z,6.72
2023-01-30T13:12:37.875Z,6.70
2023-01-30T13:14:48.461Z,6.69
2023-01-30T13:17:05.155Z,6.68
2023-01-30T13:19:15.160Z,6.68
2023-01-30T13:21:21.112Z,6.69
2023-01-30T13:23:33.039Z,6.69
2023-01-30T13:25:43.043Z,6.70
2023-01-30T13:27:56.469Z,6.68
2023-01-30T13:30:00.240Z,6.67
2023-01-30T13:32:05.723Z,6.67
2023-01-30T13:34:11.847Z,6.64
2023-01-30T13:36:17.859Z,6.61
2023-01-30T13:38:24.677Z,6.64
2023-01-30T13:40:30.821Z,6.60
2023-01-30T13:42:38.657Z,6.56
2023-01-30T13:44:44.779Z,6.56
2023-01-30T13:46:48.098Z,6.51
2023-01-30T13:49:01.226Z,6.51
2023-01-30T13:51:18.166Z,6.48
2023-01-30T13:53:28.968Z,6.45
2023-01-30T13:55:40.648Z,6.41
2023-01-30T13:57:48.164Z,6.38
2023-01-30T14:00:16.913Z,6.33
2023-01-30T14:02:20.955Z,6.27
2023-01-30T14:04:46.057Z,6.31
2023-01-30T14:06:48.066Z,6.27
2023-01-30T14:08:55.141Z,6.25
2023-01-30T14:10:57.913Z,6.23
2023-01-30T14:13:05.953Z,6.23
2023-01-30T14:15:27.220Z,6.23
2023-01-30T14:17:30.651Z,6.21
2023-01-30T14:19:39.675Z,6.21
2023-01-30T14:21:55.067Z,6.22
2023-01-30T14:24:00.835Z,6.20
2023-01-30T14:26:03.337Z,6.19
2023-01-30T14:28:44.034Z,6.21
2023-01-30T14:30:49.311Z,6.21
2023-01-30T14:32:55.786Z,6.21
2023-01-30T14:35:20.830Z,6.21
2023-01-30T14:37:45.383Z,6.19
2023-01-30T14:39:53.339Z,6.21
2023-01-30T14:42:19.395Z,6.24
2023-01-30T14:44:54.480Z,6.21
2023-01-30T14:46:58.549Z,6.23
2023-01-30T14:49:04.809Z,6.21
2023-01-30T14:51:19.831Z,6.23
2023-01-30T14:53:21.888Z,6.19
2023-01-30T14:55:26.787Z,6.21
2023-01-30T14:57:30.091Z,6.23
2023-01-30T14:59:35.612Z,6.20
2023-01-30T15:02:21.209Z,6.24
2023-01-30T15:04:23.240Z,6.21
2023-01-30T15:06:24.854Z,6.22
2023-01-30T15:08:27.309Z,6.21
2023-01-30T15:10:46.660Z,6.24
2023-01-30T15:13:28.032Z,6.24
2023-01-30T15:15:40.903Z,6.25
2023-01-30T15:18:06.921Z,6.26
2023-01-30T15:20:20.902Z,6.26
2023-01-30T15:22:31.849Z,6.23
2023-01-30T15:25:12.897Z,6.26
2023-01-30T15:27:23.154Z,6.24
2023-01-30T15:30:04.256Z,6.21
2023-01-30T15:32:22.809Z,6.19
2023-01-30T15:34:27.939Z,6.18
2023-01-30T15:36:34.034Z,6.15
2023-01-30T15:38:35.643Z,6.13
2023-01-30T15:40:40.538Z,6.13
2023-01-30T15:42:44.796Z,6.12
2023-01-30T15:44:58.300Z,6.13
2023-01-30T15:47:24.553Z,6.12
2023-01-30T15:49:46.171Z,6.10
2023-01-30T15:51:48.072Z,6.08
2023-01-30T15:53:49.903Z,6.07
2023-01-30T15:55:53.514Z,6.05
2023-01-30T15:57:59.404Z,6.07
2023-01-30T16:00:02.187Z,6.05
2023-01-30T16:02:08.297Z,6.05
2023-01-30T16:04:26.255Z,6.07
2023-01-30T16:06:34.665Z,6.09
2023-01-30T16:08:36.972Z,6.07
2023-01-30T16:10:45.407Z,6.07
2023-01-30T16:12:48.465Z,6.08
2023-01-30T16:14:50.461Z,6.08
2023-01-30T16:16:57.526Z,6.08
2023-01-30T16:19:02.142Z,6.06
2023-01-30T16:21:07.739Z,6.07
2023-01-30T16:23:21.045Z,6.08
2023-01-30T16:25:26.250Z,6.09
2023-01-30T16:27:31.911Z,6.08
2023-01-30T16:29:37.658Z,6.09
2023-01-30T16:31:41.107Z,6.09
2023-01-30T16:33:43.036Z,6.10
2023-01-30T16:35:45.918Z,6.11
2023-01-30T16:37:47.564Z,6.11
2023-01-30T16:40:04.369Z,6.14
2023-01-30T16:42:22.826Z,6.15
2023-01-30T16:44:27.498Z,6.12
2023-01-30T16:46:50.668Z,6.15
2023-01-30T16:48:52.230Z,6.13
2023-01-30T16:51:12.445Z,6.14
2023-01-30T16:53:15.387Z,6.14
2023-01-30T16:55:22.983Z,6.16
2023-01-30T16:57:32.153Z,6.18
2023-01-30T16:59:35.477Z,6.17
2023-01-30T17:01:40.411Z,6.18
2023-01-30T17:03:44.110Z,6.20
2023-01-30T17:05:48.539Z,6.21
2023-01-30T17:07:52.383Z,6.23
2023-01-30T17:09:54.065Z,6.23
2023-01-30T17:11:56.993Z,6.24
2023-01-30T17:14:18.679Z,6.26
2023-01-30T17:16:32.409Z,6.28
2023-01-30T17:18:34.005Z,6.29
2023-01-30T17:20:42.034Z,6.27
2023-01-30T17:22:47.069Z,6.30
2023-01-30T17:24:48.539Z,6.32
2023-01-30T17:26:52.675Z,6.32
2023-01-30T17:28:56.150Z,6.34
2023-01-30T17:30:57.859Z,6.33
2023-01-30T17:32:59.621Z,6.33
2023-01-30T17:35:01.202Z,6.38
2023-01-30T17:37:03.031Z,6.38
2023-01-30T17:39:11.471Z,6.39
2023-01-30T17:41:19.523Z,6.40
2023-01-30T17:43:21.139Z,6.41
2023-01-30T17:45:27.477Z,6.42
2023-01-30T17:47:29.290Z,6.40
2023-01-30T17:49:30.894Z,6.40
2023-01-30T17:51:33.134Z,6.38
2023-01-30T17:53:35.004Z,6.35
2023-01-30T17:55:36.622Z,6.35
2023-01-30T17:57:38.659Z,6.32
2023-01-30T17:59:40.165Z,6.34
2023-01-30T18:01:44.441Z,6.31
2023-01-30T18:03:46.200Z,6.28
2023-01-30T18:05:47.733Z,6.23
2023-01-30T18:07:49.460Z,6.20
2023-01-30T18:09:51.514Z,6.22
2023-01-30T18:11:53.318Z,6.18
2023-01-30T18:13:54.895Z,6.15
2023-01-30T18:15:58.712Z,6.15
2023-01-30T18:18:01.885Z,6.12
2023-01-30T18:20:03.551Z,6.09
2023-01-30T18:22:05.679Z,6.07
2023-01-30T18:24:08.197Z,6.05
2023-01-30T18:26:11.309Z,6.07
2023-01-30T18:28:12.886Z,6.08
2023-01-30T18:30:17.601Z,6.06
2023-01-30T18:32:19.607Z,6.05
2023-01-30T18:34:23.003Z,6.04
2023-01-30T18:36:24.954Z,6.05
2023-01-30T18:38:26.560Z,6.03
2023-01-30T18:40:28.167Z,6.03
2023-01-30T18:42:31.788Z,6.02
2023-01-30T18:44:33.613Z,6.02
2023-01-30T18:46:35.250Z,6.01
2023-01-30T18:48:37.103Z,6.00
2023-01-30T18:50:40.004Z,6.00
2023-01-30T18:52:41.548Z,5.98
2023-01-30T18:54:43.150Z,5.96
2023-01-30T18:56:44.872Z,5.94
2023-01-30T18:58:46.751Z,5.92
2023-01-30T19:00:48.369Z,5.91
2023-01-30T19:02:53.176Z,5.92
2023-01-30T19:04:54.936Z,5.88
2023-01-30T19:06:58.059Z,5.86
2023-01-30T19:09:00.022Z,5.84
2023-01-30T19:11:05.332Z,5.82
2023-01-30T19:13:07.462Z,5.82
2023-01-30T19:15:09.956Z,5.81
2023-01-30T19:17:11.599Z,5.79
2023-01-30T19:19:13.469Z,5.78
2023-01-30T19:21:15.190Z,5.76
2023-01-30T19:23:18.106Z,5.74
2023-01-30T19:25:19.986Z,5.74
2023-01-30T19:27:21.505Z,5.64
2023-01-30T19:29:23.025Z,5.65
2023-01-30T19:31:25.384Z,5.64
2023-01-30T19:33:26.961Z,5.60
2023-01-30T19:35:28.496Z,5.55
2023-01-30T19:37:30.327Z,5.56
2023-01-30T19:39:33.453Z,5.54
2023-01-30T19:41:36.313Z,5.56
2023-01-30T19:43:38.634Z,5.55
2023-01-30T19:45:41.210Z,5.53
2023-01-30T19:47:42.929Z,5.52
2023-01-30T19:49:44.556Z,5.47
2023-01-30T19:51:46.414Z,5.47
2023-01-30T19:53:52.058Z,5.48
2023-01-30T19:55:55.573Z,5.47
2023-01-30T19:57:57.134Z,5.46
2023-01-30T19:59:59.484Z,5.44
2023-01-30T20:02:01.817Z,5.36
2023-01-30T20:04:04.473Z,5.40
2023-01-30T20:06:08.108Z,5.41
2023-01-30T20:08:21.809Z,5.39
2023-01-30T20:10:31.222Z,5.40
2023-01-30T20:12:34.198Z,5.37
2023-01-30T20:14:35.842Z,5.36
2023-01-30T20:16:38.115Z,5.34
2023-01-30T20:18:40.956Z,5.33
2023-01-30T20:20:42.583Z,5.32
2023-01-30T20:22:44.267Z,5.32
2023-01-30T20:24:46.008Z,5.24
2023-01-30T20:26:48.632Z,5.28
2023-01-30T20:28:52.246Z,5.26
2023-01-30T20:30:53.904Z,5.26
2023-01-30T20:32:55.671Z,5.25
2023-01-30T20:34:57.169Z,5.24
2023-01-30T20:36:58.910Z,5.23
2023-01-30T20:39:01.698Z,5.22
2023-01-30T20:41:05.220Z,5.19
2023-01-30T20:43:07.145Z,5.17
2023-01-30T20:45:11.441Z,5.15
2023-01-30T20:47:13.087Z,5.15
2023-01-30T20:49:16.725Z,5.12
2023-01-30T20:51:19.985Z,5.08
2023-01-30T20:53:21.594Z,5.07
2023-01-30T20:55:23.164Z,5.04
2023-01-30T20:57:24.779Z,5.03
2023-01-30T20:59:28.518Z,4.99
2023-01-30T21:01:32.477Z,4.98
2023-01-30T21:03:34.184Z,4.96
2023-01-30T21:05:35.743Z,4.89
2023-01-30T21:07:37.299Z,4.88
2023-01-30T21:09:39.402Z,4.87
2023-01-30T21:11:41.154Z,4.85
2023-01-30T21:13:43.052Z,4.83
2023-01-30T21:15:44.648Z,4.80
2023-01-30T21:17:47.767Z,4.80
2023-01-30T21:19:49.544Z,4.76
2023-01-30T21:21:52.839Z,4.73
2023-01-30T21:23:57.110Z,4.75
2023-01-30T21:26:04.190Z,4.76
2023-01-30T21:28:05.935Z,4.74
2023-01-30T21:30:08.955Z,4.72
2023-01-30T21:32:10.587Z,4.70
2023-01-30T21:34:13.857Z,4.69
2023-01-30T21:36:17.216Z,4.69
2023-01-30T21:38:19.516Z,4.68
2023-01-30T21:40:21.031Z,4.67
2023-01-30T21:42:22.755Z,4.65
2023-01-30T21:44:26.369Z,4.63
2023-01-30T21:46:28.968Z,4.63
2023-01-30T21:48:30.707Z,4.63
2023-01-30T21:50:34.245Z,4.59
2023-01-30T21:52:35.778Z,4.58
2023-01-30T21:54:39.110Z,4.56
2023-01-30T21:56:41.296Z,4.53
2023-01-30T21:58:42.940Z,4.53
2023-01-30T22:00:44.612Z,4.51
2023-01-30T22:02:49.580Z,4.50
2023-01-30T22:04:51.285Z,4.47
2023-01-30T22:06:54.577Z,4.45
2023-01-30T22:08:56.817Z,4.44
2023-01-30T22:11:06.833Z,4.42
2023-01-30T22:13:08.736Z,4.40
2023-01-30T22:15:10.781Z,4.39
2023-01-30T22:17:12.648Z,4.36
2023-01-30T22:19:14.514Z,4.36
2023-01-30T22:21:18.676Z,4.34
2023-01-30T22:23:21.901Z,4.34
2023-01-30T22:25:24.261Z,4.32
2023-01-30T22:27:26.238Z,4.34
2023-01-30T22:29:28.188Z,4.32
2023-01-30T22:31:31.927Z,4.31
2023-01-30T22:33:34.575Z,4.31
2023-01-30T22:35:36.140Z,4.31
2023-01-30T22:37:38.394Z,4.31
2023-01-30T22:39:43.932Z,4.31
2023-01-30T22:41:45.480Z,4.31
2023-01-30T22:43:50.959Z,4.30
2023-01-30T22:45:52.685Z,4.29
2023-01-30T22:47:54.346Z,4.30
2023-01-30T22:49:55.927Z,4.27
2023-01-30T22:51:57.501Z,4.26
2023-01-30T22:54:01.005Z,4.25
2023-01-30T22:56:08.721Z,4.24
2023-01-30T22:58:10.515Z,4.23
2023-01-30T23:00:12.682Z,4.21
2023-01-30T23:02:14.511Z,4.21
2023-01-30T23:04:18.532Z,4.21
2023-01-30T23:06:20.628Z,4.20
2023-01-30T23:08:22.511Z,4.18
2023-01-30T23:10:24.586Z,4.18
2023-01-30T23:12:29.651Z,4.15
2023-01-30T23:14:33.633Z,4.14
2023-01-30T23:16:37.783Z,4.10
2023-01-30T23:18:39.582Z,4.11
2023-01-30T23:20:41.374Z,4.10
2023-01-30T23:22:43.077Z,4.09
2023-01-30T23:24:45.064Z,4.07
2023-01-30T23:26:49.407Z,4.05
2023-01-30T23:28:52.611Z,4.04
2023-01-30T23:30:54.269Z,4.03
2023-01-30T23:32:56.252Z,4.02
2023-01-30T23:34:58.016Z,4.01
2023-01-30T23:36:59.548Z,4.01
2023-01-30T23:39:01.330Z,4.00
2023-01-30T23:41:12.253Z,3.99
2023-01-30T23:43:14.742Z,3.97
2023-01-30T23:45:18.233Z,3.96
2023-01-30T23:47:19.880Z,3.93
2023-01-30T23:49:21.681Z,3.91
2023-01-30T23:51:25.391Z,3.92
2023-01-30T23:53:27.101Z,3.93
2023-01-30T23:55:28.753Z,3.90
2023-01-30T23:57:30.398Z,3.91
2023-01-30T23:59:32.262Z,3.90
